Canada

V8K3C7 Gulf Islands, Weather Archive

Below you will find the last 24 hours of weather readings for V8K3C7 Gulf Islands

V8K3C7 Gulf Islands Today's Weather Data

Observed at: V8K3C7 Gulf Islands,

Hour Observerd Temp Pressure Visibility Humidity Dew Point Wind
12:00 Sunny 8.9°C (48°F) 102 kPa 48 km 73% 4.4°C (39.8°F) 8 km/h NW 326°
11:00 Sunny 7.8°C (46°F) 102 kPa 48 km 77% 4°C (39.2°F) 1.6 km/h NNE 18°, Gusts 3.2 km/h
10:00 Sunny 5°C (41°F) 102 kPa 48 km 86% 2.8°C (37.1°F) 17 km/h ENE 77°
9:00 Sunny 3.3°C (38°F) 102 kPa 48 km 91% 2°C (35.6°F) 12 km/h ENE 77°
8:00 Sunny 9.8°C (49.6°F) 102 kPa 48 km 49% -0.4°C (31.3°F) 14 km/h NNW 331.25°
7:00 Clear 8.8°C (47.8°F) 102 kPa 48 km 57% 0.8°C (33.4°F) 16 km/h N 5°
6:00 Clear 3.9°C (39°F) 102 kPa 32 km 86% 1.7°C (35.1°F) 15 km/h ENE 77°
5:00 Clear 3.9°C (39°F) 102 kPa 32 km 85% 1.6°C (34.8°F) 18 km/h ENE 77°
4:00 Clear 5°C (41°F) 102 kPa 32 km 80% 1.8°C (35.3°F) 13 km/h ENE 77°
3:00 Clear 5°C (41°F) 102 kPa 32 km 79% 1.7°C (35°F) 5 km/h ENE 77°
2:00 Clear 5.6°C (42°F) 102 kPa 32 km 80% 2.4°C (36.3°F) 1.6 km/h ENE 62°, Gusts 4.8 km/h
1:00 Clear 6.1°C (43°F) 102 kPa 32 km 76% 2.2°C (36°F) 7 km/h WSW 244°
0:00 Clear 6.7°C (44°F) 102 kPa 32 km 69% 1.4°C (34.6°F) 4 km/h WSW 244°
23:00 Clear 8.3°C (47°F) 102 kPa 32 km 67% 2.6°C (36.7°F) 6 km/h WSW 245°
22:00 Clear 10.6°C (51°F) 102 kPa 32 km 60% 3.2°C (37.7°F) 5 km/h WSW 245°
21:00 Mainly Sunny 13.3°C (56°F) 102 kPa 48 km 51% 3.4°C (38.1°F) 6 km/h WSW 245°
20:00 Sunny 11.5°C (52.7°F) 102 kPa 48 km 53% 2.4°C (36.3°F) 6 km/h WSW 241.25°, Gusts 11.3 km/h
19:00 Sunny 11.7°C (53.1°F) 102 kPa 48 km 56% 3.1°C (37.6°F) 5 km/h WSW 241.25°, Gusts 11.3 km/h
18:00 Mainly Sunny 16.7°C (62°F) 102 kPa 48 km 47% 5.3°C (41.5°F) 1.6 km/h NW 304°, Gusts 9.7 km/h
17:00 Mainly Sunny 14.7°C (58.5°F) 102 kPa 48 km 47.1% 3.6°C (38.4°F) 16.1 km/h WSW 252°, Gusts 20.9 km/h
16:00 Mainly Sunny 17.2°C (63°F) 102 kPa 48 km 32% 0.3°C (32.5°F) 1.6 km/h WNW 291°, Gusts 6.4 km/h
15:00 Mainly Sunny 13.1°C (55.6°F) 102 kPa 48 km 52% 3.6°C (38.5°F) 7 km/h WNW 286.25°, Gusts 9.7 km/h
14:00 Mainly Sunny 16.7°C (62°F) 102 kPa 48 km 43% 4°C (39.1°F) 1.6 km/h NW 308°, Gusts 8 km/h
13:00 Mainly Sunny 14.4°C (58°F) 102 kPa 48 km 45% 2.6°C (36.7°F) 1.6 km/h WSW 243°, Gusts 9.7 km/h


Home | Earthquakes | About Us | Contact Us | Privacy

Copyright Friendly Forecast 2012 - 2024